sensor_id;sensor_type;location;lat;lon;timestamp;pressure;altitude;pressure_sealevel;temperature
16956;BMP180;8594;52.052;8.354;2023-01-16T00:01:48;98818.00;;;9.00
16956;BMP180;8594;52.052;8.354;2023-01-16T00:04:16;98808.00;;;9.00
16956;BMP180;8594;52.052;8.354;2023-01-16T00:06:43;98804.00;;;8.80
16956;BMP180;8594;52.052;8.354;2023-01-16T00:09:10;98811.00;;;9.00
16956;BMP180;8594;52.052;8.354;2023-01-16T00:11:37;98798.00;;;8.90
16956;BMP180;8594;52.052;8.354;2023-01-16T00:14:05;98798.00;;;8.70
16956;BMP180;8594;52.052;8.354;2023-01-16T00:16:32;98785.00;;;8.90
16956;BMP180;8594;52.052;8.354;2023-01-16T00:18:59;98771.00;;;8.60
16956;BMP180;8594;52.052;8.354;2023-01-16T00:21:26;98779.00;;;8.70
16956;BMP180;8594;52.052;8.354;2023-01-16T00:23:54;98767.00;;;8.70
16956;BMP180;8594;52.052;8.354;2023-01-16T00:26:21;98770.00;;;8.50
16956;BMP180;8594;52.052;8.354;2023-01-16T00:28:49;98777.00;;;8.60
16956;BMP180;8594;52.052;8.354;2023-01-16T00:31:17;98768.00;;;8.50
16956;BMP180;8594;52.052;8.354;2023-01-16T00:33:44;98758.00;;;8.40
16956;BMP180;8594;52.052;8.354;2023-01-16T00:36:12;98760.00;;;8.60
16956;BMP180;8594;52.052;8.354;2023-01-16T00:38:39;98750.00;;;8.80
16956;BMP180;8594;52.052;8.354;2023-01-16T00:41:06;98739.00;;;8.70
16956;BMP180;8594;52.052;8.354;2023-01-16T00:43:33;98743.00;;;8.50
16956;BMP180;8594;52.052;8.354;2023-01-16T00:46:01;98734.00;;;8.40
16956;BMP180;8594;52.052;8.354;2023-01-16T00:48:29;98728.00;;;8.40
16956;BMP180;8594;52.052;8.354;2023-01-16T00:50:56;98724.00;;;8.50
16956;BMP180;8594;52.052;8.354;2023-01-16T00:53:23;98724.00;;;8.70
16956;BMP180;8594;52.052;8.354;2023-01-16T00:55:51;98713.00;;;8.70
16956;BMP180;8594;52.052;8.354;2023-01-16T00:58:18;98717.00;;;8.40
16956;BMP180;8594;52.052;8.354;2023-01-16T01:00:45;98713.00;;;8.20
16956;BMP180;8594;52.052;8.354;2023-01-16T01:03:12;98717.00;;;8.50
16956;BMP180;8594;52.052;8.354;2023-01-16T01:05:40;98709.00;;;8.50
16956;BMP180;8594;52.052;8.354;2023-01-16T01:08:07;98694.00;;;8.20
16956;BMP180;8594;52.052;8.354;2023-01-16T01:10:37;98704.00;;;8.50
16956;BMP180;8594;52.052;8.354;2023-01-16T01:13:04;98698.00;;;8.20
16956;BMP180;8594;52.052;8.354;2023-01-16T01:15:31;98693.00;;;8.10
16956;BMP180;8594;52.052;8.354;2023-01-16T01:17:58;98683.00;;;8.30
16956;BMP180;8594;52.052;8.354;2023-01-16T01:20:25;98683.00;;;8.50
16956;BMP180;8594;52.052;8.354;2023-01-16T01:22:53;98678.00;;;8.30
16956;BMP180;8594;52.052;8.354;2023-01-16T01:25:20;98674.00;;;8.10
16956;BMP180;8594;52.052;8.354;2023-01-16T01:27:47;98670.00;;;8.30
16956;BMP180;8594;52.052;8.354;2023-01-16T01:30:15;98671.00;;;8.20
16956;BMP180;8594;52.052;8.354;2023-01-16T01:32:42;98658.00;;;8.10
16956;BMP180;8594;52.052;8.354;2023-01-16T01:35:09;98659.00;;;8.20
16956;BMP180;8594;52.052;8.354;2023-01-16T01:37:36;98655.00;;;8.30
16956;BMP180;8594;52.052;8.354;2023-01-16T01:40:06;98644.00;;;8.20
16956;BMP180;8594;52.052;8.354;2023-01-16T01:42:37;98640.00;;;8.00
16956;BMP180;8594;52.052;8.354;2023-01-16T01:45:18;98638.00;;;8.30
16956;BMP180;8594;52.052;8.354;2023-01-16T01:47:51;98632.00;;;8.30
16956;BMP180;8594;52.052;8.354;2023-01-16T01:50:33;98614.00;;;8.10
16956;BMP180;8594;52.052;8.354;2023-01-16T01:53:08;98610.00;;;8.00
16956;BMP180;8594;52.052;8.354;2023-01-16T01:55:41;98607.00;;;8.20
16956;BMP180;8594;52.052;8.354;2023-01-16T01:58:09;98605.00;;;7.90
16956;BMP180;8594;52.052;8.354;2023-01-16T02:00:36;98594.00;;;8.20
16956;BMP180;8594;52.052;8.354;2023-01-16T02:03:10;98598.00;;;7.90
16956;BMP180;8594;52.052;8.354;2023-01-16T02:05:44;98589.00;;;7.70
16956;BMP180;8594;52.052;8.354;2023-01-16T02:08:16;98585.00;;;7.70
16956;BMP180;8594;52.052;8.354;2023-01-16T02:10:51;98585.00;;;8.00
16956;BMP180;8594;52.052;8.354;2023-01-16T02:13:19;98580.00;;;7.60
16956;BMP180;8594;52.052;8.354;2023-01-16T02:15:46;98582.00;;;7.40
16956;BMP180;8594;52.052;8.354;2023-01-16T02:18:27;98576.00;;;7.70
16956;BMP180;8594;52.052;8.354;2023-01-16T02:21:38;98572.00;;;7.50
16956;BMP180;8594;52.052;8.354;2023-01-16T02:24:41;98563.00;;;7.70
16956;BMP180;8594;52.052;8.354;2023-01-16T02:27:47;98564.00;;;7.40
16956;BMP180;8594;52.052;8.354;2023-01-16T02:30:34;98571.00;;;7.80
16956;BMP180;8594;52.052;8.354;2023-01-16T02:33:14;98571.00;;;7.80
16956;BMP180;8594;52.052;8.354;2023-01-16T02:35:59;98555.00;;;7.90
16956;BMP180;8594;52.052;8.354;2023-01-16T02:38:41;98552.00;;;7.90
16956;BMP180;8594;52.052;8.354;2023-01-16T02:41:21;98542.00;;;7.70
16956;BMP180;8594;52.052;8.354;2023-01-16T02:44:01;98535.00;;;7.80
16956;BMP180;8594;52.052;8.354;2023-01-16T02:46:35;98527.00;;;7.70
16956;BMP180;8594;52.052;8.354;2023-01-16T02:49:16;98516.00;;;7.50
16956;BMP180;8594;52.052;8.354;2023-01-16T02:51:56;98523.00;;;7.80
16956;BMP180;8594;52.052;8.354;2023-01-16T02:54:31;98500.00;;;7.60
16956;BMP180;8594;52.052;8.354;2023-01-16T02:57:06;98504.00;;;7.90
16956;BMP180;8594;52.052;8.354;2023-01-16T02:59:34;98484.00;;;7.70
16956;BMP180;8594;52.052;8.354;2023-01-16T03:02:01;98495.00;;;8.00
16956;BMP180;8594;52.052;8.354;2023-01-16T03:04:44;98486.00;;;7.80
16956;BMP180;8594;52.052;8.354;2023-01-16T03:07:51;98482.00;;;7.80
16956;BMP180;8594;52.052;8.354;2023-01-16T03:13:52;98456.00;;;7.50
16956;BMP180;8594;52.052;8.354;2023-01-16T03:16:29;98452.00;;;7.50
16956;BMP180;8594;52.052;8.354;2023-01-16T03:19:13;98448.00;;;7.60
16956;BMP180;8594;52.052;8.354;2023-01-16T03:21:59;98446.00;;;7.70
16956;BMP180;8594;52.052;8.354;2023-01-16T03:24:38;98444.00;;;7.30
16956;BMP180;8594;52.052;8.354;2023-01-16T03:27:20;98442.00;;;7.50
16956;BMP180;8594;52.052;8.354;2023-01-16T03:29:56;98431.00;;;7.50
16956;BMP180;8594;52.052;8.354;2023-01-16T03:32:33;98430.00;;;7.20
16956;BMP180;8594;52.052;8.354;2023-01-16T03:35:06;98422.00;;;7.40
16956;BMP180;8594;52.052;8.354;2023-01-16T03:37:42;98415.00;;;7.40
16956;BMP180;8594;52.052;8.354;2023-01-16T03:40:15;98423.00;;;7.30
16956;BMP180;8594;52.052;8.354;2023-01-16T03:42:50;98409.00;;;7.30
16956;BMP180;8594;52.052;8.354;2023-01-16T03:45:23;98411.00;;;7.30
16956;BMP180;8594;52.052;8.354;2023-01-16T03:48:03;98411.00;;;7.20
16956;BMP180;8594;52.052;8.354;2023-01-16T03:50:34;98405.00;;;7.40
16956;BMP180;8594;52.052;8.354;2023-01-16T03:53:08;98398.00;;;7.20
16956;BMP180;8594;52.052;8.354;2023-01-16T03:55:42;98392.00;;;7.30
16956;BMP180;8594;52.052;8.354;2023-01-16T03:58:18;98404.00;;;7.50
16956;BMP180;8594;52.052;8.354;2023-01-16T04:00:58;98402.00;;;7.00
16956;BMP180;8594;52.052;8.354;2023-01-16T04:03:34;98391.00;;;7.20
16956;BMP180;8594;52.052;8.354;2023-01-16T04:06:10;98386.00;;;7.40
16956;BMP180;8594;52.052;8.354;2023-01-16T04:08:41;98382.00;;;7.00
16956;BMP180;8594;52.052;8.354;2023-01-16T04:11:13;98379.00;;;6.80
16956;BMP180;8594;52.052;8.354;2023-01-16T04:13:45;98378.00;;;6.80
16956;BMP180;8594;52.052;8.354;2023-01-16T04:16:16;98372.00;;;7.00
16956;BMP180;8594;52.052;8.354;2023-01-16T04:18:46;98378.00;;;7.10
16956;BMP180;8594;52.052;8.354;2023-01-16T04:21:13;98375.00;;;7.10
16956;BMP180;8594;52.052;8.354;2023-01-16T04:23:42;98372.00;;;7.40
16956;BMP180;8594;52.052;8.354;2023-01-16T04:26:09;98366.00;;;7.10
16956;BMP180;8594;52.052;8.354;2023-01-16T04:28:36;98356.00;;;7.10
16956;BMP180;8594;52.052;8.354;2023-01-16T04:31:03;98359.00;;;6.90
16956;BMP180;8594;52.052;8.354;2023-01-16T04:33:30;98346.00;;;7.00
16956;BMP180;8594;52.052;8.354;2023-01-16T04:35:57;98352.00;;;7.30
16956;BMP180;8594;52.052;8.354;2023-01-16T04:38:24;98344.00;;;7.30
16956;BMP180;8594;52.052;8.354;2023-01-16T04:40:54;98344.00;;;7.40
16956;BMP180;8594;52.052;8.354;2023-01-16T04:43:21;98336.00;;;7.50
16956;BMP180;8594;52.052;8.354;2023-01-16T04:45:48;98335.00;;;7.30
16956;BMP180;8594;52.052;8.354;2023-01-16T04:48:14;98327.00;;;7.20
16956;BMP180;8594;52.052;8.354;2023-01-16T04:50:41;98320.00;;;7.40
16956;BMP180;8594;52.052;8.354;2023-01-16T04:53:08;98299.00;;;7.50
16956;BMP180;8594;52.052;8.354;2023-01-16T04:55:35;98301.00;;;7.30
16956;BMP180;8594;52.052;8.354;2023-01-16T04:58:03;98291.00;;;7.30
16956;BMP180;8594;52.052;8.354;2023-01-16T05:00:30;98292.00;;;7.40
16956;BMP180;8594;52.052;8.354;2023-01-16T05:02:57;98285.00;;;7.40
16956;BMP180;8594;52.052;8.354;2023-01-16T05:05:23;98275.00;;;7.40
16956;BMP180;8594;52.052;8.354;2023-01-16T05:07:50;98267.00;;;7.70
16956;BMP180;8594;52.052;8.354;2023-01-16T05:10:31;98266.00;;;7.90
16956;BMP180;8594;52.052;8.354;2023-01-16T05:12:58;98262.00;;;7.70
16956;BMP180;8594;52.052;8.354;2023-01-16T05:15:26;98265.00;;;7.50
16956;BMP180;8594;52.052;8.354;2023-01-16T05:17:54;98263.00;;;7.60
16956;BMP180;8594;52.052;8.354;2023-01-16T05:20:21;98243.00;;;7.30
16956;BMP180;8594;52.052;8.354;2023-01-16T05:22:48;98242.00;;;7.00
16956;BMP180;8594;52.052;8.354;2023-01-16T05:25:15;98252.00;;;7.40
16956;BMP180;8594;52.052;8.354;2023-01-16T05:27:42;98237.00;;;7.30
16956;BMP180;8594;52.052;8.354;2023-01-16T05:30:11;98228.00;;;7.10
16956;BMP180;8594;52.052;8.354;2023-01-16T05:32:39;98220.00;;;7.00
16956;BMP180;8594;52.052;8.354;2023-01-16T05:35:06;98217.00;;;7.00
16956;BMP180;8594;52.052;8.354;2023-01-16T05:37:33;98226.00;;;6.90
16956;BMP180;8594;52.052;8.354;2023-01-16T05:40:00;98219.00;;;6.90
16956;BMP180;8594;52.052;8.354;2023-01-16T05:42:27;98204.00;;;6.90
16956;BMP180;8594;52.052;8.354;2023-01-16T05:44:54;98199.00;;;6.80
16956;BMP180;8594;52.052;8.354;2023-01-16T05:47:21;98196.00;;;7.10
16956;BMP180;8594;52.052;8.354;2023-01-16T05:49:49;98187.00;;;7.00
16956;BMP180;8594;52.052;8.354;2023-01-16T05:52:16;98182.00;;;7.20
16956;BMP180;8594;52.052;8.354;2023-01-16T05:54:43;98183.00;;;7.00
16956;BMP180;8594;52.052;8.354;2023-01-16T05:57:10;98183.00;;;6.80
16956;BMP180;8594;52.052;8.354;2023-01-16T05:59:38;98170.00;;;6.80
16956;BMP180;8594;52.052;8.354;2023-01-16T06:02:07;98164.00;;;6.90
16956;BMP180;8594;52.052;8.354;2023-01-16T06:04:33;98164.00;;;6.80
16956;BMP180;8594;52.052;8.354;2023-01-16T06:07:02;98152.00;;;6.70
16956;BMP180;8594;52.052;8.354;2023-01-16T06:09:29;98156.00;;;6.80
16956;BMP180;8594;52.052;8.354;2023-01-16T06:11:56;98152.00;;;6.80
16956;BMP180;8594;52.052;8.354;2023-01-16T06:14:22;98148.00;;;6.80
16956;BMP180;8594;52.052;8.354;2023-01-16T06:16:49;98149.00;;;6.90
16956;BMP180;8594;52.052;8.354;2023-01-16T06:19:16;98138.00;;;7.00
16956;BMP180;8594;52.052;8.354;2023-01-16T06:21:43;98135.00;;;7.00
16956;BMP180;8594;52.052;8.354;2023-01-16T06:24:11;98129.00;;;6.90
16956;BMP180;8594;52.052;8.354;2023-01-16T06:26:38;98117.00;;;6.80
16956;BMP180;8594;52.052;8.354;2023-01-16T06:29:05;98117.00;;;6.80
16956;BMP180;8594;52.052;8.354;2023-01-16T06:31:32;98124.00;;;6.60
16956;BMP180;8594;52.052;8.354;2023-01-16T06:33:58;98117.00;;;6.60
16956;BMP180;8594;52.052;8.354;2023-01-16T06:36:25;98112.00;;;6.70
16956;BMP180;8594;52.052;8.354;2023-01-16T06:38:52;98102.00;;;6.60
16956;BMP180;8594;52.052;8.354;2023-01-16T06:41:20;98096.00;;;6.40
16956;BMP180;8594;52.052;8.354;2023-01-16T06:43:47;98085.00;;;6.30
16956;BMP180;8594;52.052;8.354;2023-01-16T06:46:14;98079.00;;;6.70
16956;BMP180;8594;52.052;8.354;2023-01-16T06:48:41;98082.00;;;6.60
16956;BMP180;8594;52.052;8.354;2023-01-16T06:51:08;98088.00;;;6.70
16956;BMP180;8594;52.052;8.354;2023-01-16T06:53:36;98090.00;;;6.70
16956;BMP180;8594;52.052;8.354;2023-01-16T06:56:04;98071.00;;;6.60
16956;BMP180;8594;52.052;8.354;2023-01-16T06:58:32;98081.00;;;6.60
16956;BMP180;8594;52.052;8.354;2023-01-16T07:00:59;98076.00;;;6.50
16956;BMP180;8594;52.052;8.354;2023-01-16T07:03:26;98057.00;;;6.60
16956;BMP180;8594;52.052;8.354;2023-01-16T07:05:52;98048.00;;;6.40
16956;BMP180;8594;52.052;8.354;2023-01-16T07:08:19;98050.00;;;6.20
16956;BMP180;8594;52.052;8.354;2023-01-16T07:10:46;98037.00;;;6.30
16956;BMP180;8594;52.052;8.354;2023-01-16T07:13:13;98029.00;;;6.50
16956;BMP180;8594;52.052;8.354;2023-01-16T07:15:46;98030.00;;;6.40
16956;BMP180;8594;52.052;8.354;2023-01-16T07:18:31;98022.00;;;6.50
16956;BMP180;8594;52.052;8.354;2023-01-16T07:21:13;98028.00;;;6.60
16956;BMP180;8594;52.052;8.354;2023-01-16T07:23:57;98008.00;;;6.40
16956;BMP180;8594;52.052;8.354;2023-01-16T07:26:26;98006.00;;;6.40
16956;BMP180;8594;52.052;8.354;2023-01-16T07:28:55;98006.00;;;6.30
16956;BMP180;8594;52.052;8.354;2023-01-16T07:31:24;97998.00;;;6.60
16956;BMP180;8594;52.052;8.354;2023-01-16T07:33:52;97997.00;;;6.60
16956;BMP180;8594;52.052;8.354;2023-01-16T07:36:19;97986.00;;;6.40
16956;BMP180;8594;52.052;8.354;2023-01-16T07:38:45;97986.00;;;6.60
16956;BMP180;8594;52.052;8.354;2023-01-16T07:41:12;97989.00;;;6.30
16956;BMP180;8594;52.052;8.354;2023-01-16T07:43:40;97972.00;;;6.60
16956;BMP180;8594;52.052;8.354;2023-01-16T07:46:07;97973.00;;;6.70
16956;BMP180;8594;52.052;8.354;2023-01-16T07:48:35;97964.00;;;6.80
16956;BMP180;8594;52.052;8.354;2023-01-16T07:51:02;97961.00;;;6.60
16956;BMP180;8594;52.052;8.354;2023-01-16T07:53:31;97958.00;;;6.70
16956;BMP180;8594;52.052;8.354;2023-01-16T07:56:00;97962.00;;;6.50
16956;BMP180;8594;52.052;8.354;2023-01-16T07:58:29;97949.00;;;6.40
16956;BMP180;8594;52.052;8.354;2023-01-16T08:00:57;97939.00;;;6.60
16956;BMP180;8594;52.052;8.354;2023-01-16T08:03:25;97933.00;;;6.50
16956;BMP180;8594;52.052;8.354;2023-01-16T08:05:57;97921.00;;;6.40
16956;BMP180;8594;52.052;8.354;2023-01-16T08:08:25;97912.00;;;6.50
16956;BMP180;8594;52.052;8.354;2023-01-16T08:10:54;97907.00;;;6.60
16956;BMP180;8594;52.052;8.354;2023-01-16T08:13:21;97896.00;;;6.30
16956;BMP180;8594;52.052;8.354;2023-01-16T08:15:48;97891.00;;;6.30
16956;BMP180;8594;52.052;8.354;2023-01-16T08:18:15;97889.00;;;6.60
16956;BMP180;8594;52.052;8.354;2023-01-16T08:20:43;97885.00;;;6.30
16956;BMP180;8594;52.052;8.354;2023-01-16T08:23:12;97866.00;;;6.00
16956;BMP180;8594;52.052;8.354;2023-01-16T08:25:39;97869.00;;;6.30
16956;BMP180;8594;52.052;8.354;2023-01-16T08:28:06;97860.00;;;6.50
16956;BMP180;8594;52.052;8.354;2023-01-16T08:30:32;97850.00;;;6.40
16956;BMP180;8594;52.052;8.354;2023-01-16T08:33:00;97846.00;;;6.30
16956;BMP180;8594;52.052;8.354;2023-01-16T08:35:28;97846.00;;;6.30
16956;BMP180;8594;52.052;8.354;2023-01-16T08:37:55;97841.00;;;6.50
16956;BMP180;8594;52.052;8.354;2023-01-16T08:40:23;97830.00;;;6.70
16956;BMP180;8594;52.052;8.354;2023-01-16T08:42:50;97820.00;;;6.30
16956;BMP180;8594;52.052;8.354;2023-01-16T08:45:34;97810.00;;;6.50
16956;BMP180;8594;52.052;8.354;2023-01-16T08:48:23;97806.00;;;6.50
16956;BMP180;8594;52.052;8.354;2023-01-16T08:51:15;97799.00;;;6.60
16956;BMP180;8594;52.052;8.354;2023-01-16T08:53:53;97805.00;;;6.50
16956;BMP180;8594;52.052;8.354;2023-01-16T08:56:22;97811.00;;;6.40
16956;BMP180;8594;52.052;8.354;2023-01-16T08:58:49;97783.00;;;6.70
16956;BMP180;8594;52.052;8.354;2023-01-16T09:01:16;97780.00;;;6.40
16956;BMP180;8594;52.052;8.354;2023-01-16T09:03:45;97794.00;;;6.50
16956;BMP180;8594;52.052;8.354;2023-01-16T09:06:12;97789.00;;;6.60
16956;BMP180;8594;52.052;8.354;2023-01-16T09:08:39;97779.00;;;6.80
16956;BMP180;8594;52.052;8.354;2023-01-16T09:11:05;97770.00;;;6.70
16956;BMP180;8594;52.052;8.354;2023-01-16T09:14:03;97748.00;;;6.70
16956;BMP180;8594;52.052;8.354;2023-01-16T09:16:30;97737.00;;;6.80
16956;BMP180;8594;52.052;8.354;2023-01-16T09:18:57;97743.00;;;6.90
16956;BMP180;8594;52.052;8.354;2023-01-16T09:21:24;97737.00;;;6.60
16956;BMP180;8594;52.052;8.354;2023-01-16T09:23:51;97731.00;;;6.70
16956;BMP180;8594;52.052;8.354;2023-01-16T09:26:18;97722.00;;;6.70
16956;BMP180;8594;52.052;8.354;2023-01-16T09:28:45;97706.00;;;7.00
16956;BMP180;8594;52.052;8.354;2023-01-16T09:31:13;97700.00;;;7.10
16956;BMP180;8594;52.052;8.354;2023-01-16T09:33:39;97691.00;;;6.90
16956;BMP180;8594;52.052;8.354;2023-01-16T09:36:07;97700.00;;;7.10
16956;BMP180;8594;52.052;8.354;2023-01-16T09:38:34;97696.00;;;7.00
16956;BMP180;8594;52.052;8.354;2023-01-16T09:41:02;97696.00;;;7.00
16956;BMP180;8594;52.052;8.354;2023-01-16T09:43:36;97694.00;;;7.20
16956;BMP180;8594;52.052;8.354;2023-01-16T09:46:09;97689.00;;;7.00
16956;BMP180;8594;52.052;8.354;2023-01-16T09:48:51;97681.00;;;7.00
16956;BMP180;8594;52.052;8.354;2023-01-16T09:51:27;97683.00;;;7.20
16956;BMP180;8594;52.052;8.354;2023-01-16T09:53:59;97663.00;;;7.20
16956;BMP180;8594;52.052;8.354;2023-01-16T09:56:53;97668.00;;;7.00
16956;BMP180;8594;52.052;8.354;2023-01-16T09:59:42;97648.00;;;7.10
16956;BMP180;8594;52.052;8.354;2023-01-16T10:02:22;97653.00;;;7.10
16956;BMP180;8594;52.052;8.354;2023-01-16T10:04:55;97642.00;;;7.20
16956;BMP180;8594;52.052;8.354;2023-01-16T10:07:43;97633.00;;;7.20
16956;BMP180;8594;52.052;8.354;2023-01-16T10:10:29;97628.00;;;7.10
16956;BMP180;8594;52.052;8.354;2023-01-16T10:13:14;97616.00;;;6.80
16956;BMP180;8594;52.052;8.354;2023-01-16T10:15:52;97611.00;;;7.00
16956;BMP180;8594;52.052;8.354;2023-01-16T10:18:34;97594.00;;;6.90
16956;BMP180;8594;52.052;8.354;2023-01-16T10:21:31;97592.00;;;7.20
16956;BMP180;8594;52.052;8.354;2023-01-16T10:24:05;97594.00;;;6.80
16956;BMP180;8594;52.052;8.354;2023-01-16T10:26:53;97576.00;;;7.30
16956;BMP180;8594;52.052;8.354;2023-01-16T10:29:27;97576.00;;;7.20
16956;BMP180;8594;52.052;8.354;2023-01-16T10:32:01;97561.00;;;7.30
16956;BMP180;8594;52.052;8.354;2023-01-16T10:34:34;97561.00;;;7.30
16956;BMP180;8594;52.052;8.354;2023-01-16T10:37:05;97549.00;;;7.40
16956;BMP180;8594;52.052;8.354;2023-01-16T10:39:35;97545.00;;;7.20
16956;BMP180;8594;52.052;8.354;2023-01-16T10:42:12;97545.00;;;7.00
16956;BMP180;8594;52.052;8.354;2023-01-16T10:45:11;97524.00;;;7.30
16956;BMP180;8594;52.052;8.354;2023-01-16T10:47:57;97524.00;;;7.40
16956;BMP180;8594;52.052;8.354;2023-01-16T10:50:42;97523.00;;;7.50
16956;BMP180;8594;52.052;8.354;2023-01-16T10:53:11;97519.00;;;7.30
16956;BMP180;8594;52.052;8.354;2023-01-16T10:55:42;97503.00;;;7.50
16956;BMP180;8594;52.052;8.354;2023-01-16T10:58:27;97488.00;;;7.40
16956;BMP180;8594;52.052;8.354;2023-01-16T11:01:01;97487.00;;;7.30
16956;BMP180;8594;52.052;8.354;2023-01-16T11:03:35;97484.00;;;7.60
16956;BMP180;8594;52.052;8.354;2023-01-16T11:06:14;97487.00;;;7.90
16956;BMP180;8594;52.052;8.354;2023-01-16T11:08:47;97479.00;;;7.50
16956;BMP180;8594;52.052;8.354;2023-01-16T11:11:15;97468.00;;;7.60
16956;BMP180;8594;52.052;8.354;2023-01-16T11:14:10;97476.00;;;7.60
16956;BMP180;8594;52.052;8.354;2023-01-16T11:16:56;97462.00;;;7.80
16956;BMP180;8594;52.052;8.354;2023-01-16T11:19:43;97454.00;;;7.80
16956;BMP180;8594;52.052;8.354;2023-01-16T11:22:23;97449.00;;;7.80
16956;BMP180;8594;52.052;8.354;2023-01-16T11:24:57;97442.00;;;7.90
16956;BMP180;8594;52.052;8.354;2023-01-16T11:27:31;97440.00;;;7.80
16956;BMP180;8594;52.052;8.354;2023-01-16T11:30:05;97429.00;;;8.00
16956;BMP180;8594;52.052;8.354;2023-01-16T11:32:36;97435.00;;;8.00
16956;BMP180;8594;52.052;8.354;2023-01-16T11:35:14;97426.00;;;7.80
16956;BMP180;8594;52.052;8.354;2023-01-16T11:37:43;97426.00;;;8.10
16956;BMP180;8594;52.052;8.354;2023-01-16T11:40:19;97417.00;;;8.00
16956;BMP180;8594;52.052;8.354;2023-01-16T11:42:55;97429.00;;;7.90
16956;BMP180;8594;52.052;8.354;2023-01-16T11:45:56;97402.00;;;7.50
16956;BMP180;8594;52.052;8.354;2023-01-16T11:48:37;97402.00;;;7.30
16956;BMP180;8594;52.052;8.354;2023-01-16T11:51:08;97396.00;;;7.50
16956;BMP180;8594;52.052;8.354;2023-01-16T11:53:37;97396.00;;;7.20
16956;BMP180;8594;52.052;8.354;2023-01-16T11:56:43;97385.00;;;7.20
16956;BMP180;8594;52.052;8.354;2023-01-16T11:59:39;97373.00;;;7.10
16956;BMP180;8594;52.052;8.354;2023-01-16T12:02:40;97382.00;;;7.30
16956;BMP180;8594;52.052;8.354;2023-01-16T12:05:19;97383.00;;;7.20
16956;BMP180;8594;52.052;8.354;2023-01-16T12:08:22;97365.00;;;7.50
16956;BMP180;8594;52.052;8.354;2023-01-16T12:11:02;97355.00;;;7.20
16956;BMP180;8594;52.052;8.354;2023-01-16T12:13:40;97360.00;;;6.90
16956;BMP180;8594;52.052;8.354;2023-01-16T12:16:41;97349.00;;;6.80
16956;BMP180;8594;52.052;8.354;2023-01-16T12:19:50;97355.00;;;6.90
16956;BMP180;8594;52.052;8.354;2023-01-16T12:22:36;97348.00;;;6.80
16956;BMP180;8594;52.052;8.354;2023-01-16T12:25:19;97338.00;;;6.90
16956;BMP180;8594;52.052;8.354;2023-01-16T12:28:03;97331.00;;;7.00
16956;BMP180;8594;52.052;8.354;2023-01-16T12:30:51;97312.00;;;7.00
16956;BMP180;8594;52.052;8.354;2023-01-16T12:33:38;97305.00;;;6.90
16956;BMP180;8594;52.052;8.354;2023-01-16T12:36:11;97300.00;;;6.90
16956;BMP180;8594;52.052;8.354;2023-01-16T12:38:49;97290.00;;;7.20
16956;BMP180;8594;52.052;8.354;2023-01-16T12:41:21;97286.00;;;7.40
16956;BMP180;8594;52.052;8.354;2023-01-16T12:44:40;97277.00;;;7.20
16956;BMP180;8594;52.052;8.354;2023-01-16T12:47:41;97269.00;;;7.20
16956;BMP180;8594;52.052;8.354;2023-01-16T12:50:31;97267.00;;;7.30
16956;BMP180;8594;52.052;8.354;2023-01-16T12:53:37;97249.00;;;7.50
16956;BMP180;8594;52.052;8.354;2023-01-16T12:56:29;97245.00;;;7.20
16956;BMP180;8594;52.052;8.354;2023-01-16T12:59:03;97229.00;;;7.20
16956;BMP180;8594;52.052;8.354;2023-01-16T13:01:38;97217.00;;;7.20
16956;BMP180;8594;52.052;8.354;2023-01-16T13:04:15;97225.00;;;7.10
16956;BMP180;8594;52.052;8.354;2023-01-16T13:06:48;97222.00;;;7.10
16956;BMP180;8594;52.052;8.354;2023-01-16T13:09:22;97211.00;;;7.30
16956;BMP180;8594;52.052;8.354;2023-01-16T13:12:05;97219.00;;;7.20
16956;BMP180;8594;52.052;8.354;2023-01-16T13:15:00;97205.00;;;7.30
16956;BMP180;8594;52.052;8.354;2023-01-16T13:17:42;97183.00;;;7.30
16956;BMP180;8594;52.052;8.354;2023-01-16T13:20:15;97175.00;;;6.90
16956;BMP180;8594;52.052;8.354;2023-01-16T13:22:50;97196.00;;;7.40
16956;BMP180;8594;52.052;8.354;2023-01-16T13:25:26;97191.00;;;7.40
16956;BMP180;8594;52.052;8.354;2023-01-16T13:27:58;97203.00;;;7.50
16956;BMP180;8594;52.052;8.354;2023-01-16T13:30:27;97183.00;;;7.60
16956;BMP180;8594;52.052;8.354;2023-01-16T13:33:00;97181.00;;;7.50
16956;BMP180;8594;52.052;8.354;2023-01-16T13:35:38;97173.00;;;7.80
16956;BMP180;8594;52.052;8.354;2023-01-16T13:38:34;97167.00;;;7.60
16956;BMP180;8594;52.052;8.354;2023-01-16T13:41:28;97153.00;;;7.70
16956;BMP180;8594;52.052;8.354;2023-01-16T13:44:03;97151.00;;;7.50
16956;BMP180;8594;52.052;8.354;2023-01-16T13:46:50;97141.00;;;7.20
16956;BMP180;8594;52.052;8.354;2023-01-16T13:49:22;97119.00;;;7.40
16956;BMP180;8594;52.052;8.354;2023-01-16T13:51:52;97129.00;;;7.80
16956;BMP180;8594;52.052;8.354;2023-01-16T13:54:24;97132.00;;;7.60
16956;BMP180;8594;52.052;8.354;2023-01-16T13:57:03;97123.00;;;7.80
16956;BMP180;8594;52.052;8.354;2023-01-16T13:59:44;97122.00;;;7.90
16956;BMP180;8594;52.052;8.354;2023-01-16T14:02:38;97115.00;;;7.90
16956;BMP180;8594;52.052;8.354;2023-01-16T14:08:26;97083.00;;;7.70
16956;BMP180;8594;52.052;8.354;2023-01-16T14:11:34;97120.00;;;7.50
16956;BMP180;8594;52.052;8.354;2023-01-16T14:14:33;97096.00;;;7.40
16956;BMP180;8594;52.052;8.354;2023-01-16T14:17:21;97098.00;;;7.70
16956;BMP180;8594;52.052;8.354;2023-01-16T14:19:56;97097.00;;;7.40
16956;BMP180;8594;52.052;8.354;2023-01-16T14:22:32;97091.00;;;7.60
16956;BMP180;8594;52.052;8.354;2023-01-16T14:25:23;97091.00;;;7.30
16956;BMP180;8594;52.052;8.354;2023-01-16T14:27:53;97087.00;;;7.60
16956;BMP180;8594;52.052;8.354;2023-01-16T14:30:26;97077.00;;;7.50
16956;BMP180;8594;52.052;8.354;2023-01-16T14:32:58;97072.00;;;7.30
16956;BMP180;8594;52.052;8.354;2023-01-16T14:35:30;97067.00;;;7.50
16956;BMP180;8594;52.052;8.354;2023-01-16T14:38:02;97065.00;;;7.50
16956;BMP180;8594;52.052;8.354;2023-01-16T14:40:37;97055.00;;;7.20
16956;BMP180;8594;52.052;8.354;2023-01-16T14:43:29;97045.00;;;7.50
16956;BMP180;8594;52.052;8.354;2023-01-16T14:46:31;97051.00;;;7.30
16956;BMP180;8594;52.052;8.354;2023-01-16T14:49:42;97056.00;;;7.50
16956;BMP180;8594;52.052;8.354;2023-01-16T14:52:57;97045.00;;;7.40
16956;BMP180;8594;52.052;8.354;2023-01-16T14:55:52;97055.00;;;7.50
16956;BMP180;8594;52.052;8.354;2023-01-16T14:58:30;97048.00;;;7.30
16956;BMP180;8594;52.052;8.354;2023-01-16T15:01:02;97048.00;;;7.60
16956;BMP180;8594;52.052;8.354;2023-01-16T15:04:01;97034.00;;;7.00
16956;BMP180;8594;52.052;8.354;2023-01-16T15:06:37;97036.00;;;7.10
16956;BMP180;8594;52.052;8.354;2023-01-16T15:09:05;97033.00;;;7.00
16956;BMP180;8594;52.052;8.354;2023-01-16T15:11:47;97030.00;;;7.00
16956;BMP180;8594;52.052;8.354;2023-01-16T15:14:19;97019.00;;;6.70
16956;BMP180;8594;52.052;8.354;2023-01-16T15:16:57;97025.00;;;6.70
16956;BMP180;8594;52.052;8.354;2023-01-16T15:19:59;96998.00;;;6.50
16956;BMP180;8594;52.052;8.354;2023-01-16T15:22:47;97004.00;;;6.70
16956;BMP180;8594;52.052;8.354;2023-01-16T15:25:30;96996.00;;;6.50